Oconomowoc, Wisconsin
Current Conditions -  °F | °C
As of 1:15 AM on Sunday 23 Nov 2014 (Local Time) from KRYV Reporting Station
Overcast Overcast  
Wind Chill: 43°   Ceiling: 1100
Heat Index: 47°   Visibility: 10mi
Dew Point: 47°   Wind: 8mph
Humidity: 100%   Direction: 170°S
Pressure: 29.73"   Gusts: NA
Location:  43.11°N, 88.5°W
Report Text: KRYV 230715Z AUTO 17007KT 10SM OVC011 08/08 A2973 RMK AO2 T00830083
Loading
Personal Weather Stations






























Interactive Weather Map New forecast layout! Learn more

10-Day Weather Forecast

Advertisements
Track Severe Weather on mobile